Terminal Aerodrome Forecast
Issued by NWS

Home | Current Version | Previous Version | Graphics & Text | Print | Product List | Glossary On
Versions: 1 2 3 4 5 6 7 8 9 10 11 12 13 14
244
FTUS43 KTOP 221724
TAFMHK
TAF
KMHK 221724Z 2218/2318 20013G21KT P6SM SCT200
     FM230000 17008KT P6SM SKC=

USA.gov is the U.S. government's official web portal to all federal, state and local government web resources and services.